createdAt,value
2023-02-13T00:02:40.121Z,4.69
2023-02-13T00:06:08.062Z,4.68
2023-02-13T00:09:35.376Z,4.67
2023-02-13T00:13:05.753Z,4.68
2023-02-13T00:16:33.276Z,4.69
2023-02-13T00:20:00.809Z,4.71
2023-02-13T00:23:28.941Z,4.72
2023-02-13T00:26:56.228Z,4.72
2023-02-13T00:30:24.071Z,4.70
2023-02-13T00:33:51.594Z,4.68
2023-02-13T00:37:18.996Z,4.67
2023-02-13T00:40:56.537Z,4.67
2023-02-13T00:44:24.170Z,4.66
2023-02-13T00:47:51.323Z,4.65
2023-02-13T00:51:20.927Z,4.66
2023-02-13T00:54:48.425Z,4.69
2023-02-13T00:58:16.011Z,4.70
2023-02-13T01:01:45.221Z,4.72
2023-02-13T01:05:13.110Z,4.72
2023-02-13T01:08:43.346Z,4.72
2023-02-13T01:12:11.231Z,4.73
2023-02-13T01:15:38.900Z,4.74
2023-02-13T01:19:07.393Z,4.75
2023-02-13T01:22:34.825Z,4.74
2023-02-13T01:26:02.235Z,4.74
2023-02-13T01:29:29.423Z,4.75
2023-02-13T01:32:56.634Z,4.74
2023-02-13T01:36:24.060Z,4.74
2023-02-13T01:39:56.461Z,4.73
2023-02-13T01:43:26.162Z,4.72
2023-02-13T01:46:54.078Z,4.71
2023-02-13T01:50:46.108Z,4.70
2023-02-13T01:54:18.467Z,4.69
2023-02-13T01:57:50.687Z,4.70
2023-02-13T02:01:18.433Z,4.70
2023-02-13T02:04:47.964Z,4.71
2023-02-13T02:08:18.549Z,4.72
2023-02-13T02:12:02.499Z,4.71
2023-02-13T02:15:30.503Z,4.70
2023-02-13T02:18:58.347Z,4.68
2023-02-13T02:22:58.291Z,4.65
2023-02-13T02:26:59.692Z,4.63
2023-02-13T02:31:17.470Z,4.60
2023-02-13T02:34:57.679Z,4.58
2023-02-13T02:38:40.570Z,4.57
2023-02-13T02:42:19.561Z,4.55
2023-02-13T02:45:54.337Z,4.55
2023-02-13T02:49:54.334Z,4.56
2023-02-13T02:53:49.411Z,4.59
2023-02-13T02:57:23.092Z,4.62
2023-02-13T03:01:16.882Z,4.64
2023-02-13T03:05:08.149Z,4.65
2023-02-13T03:08:52.872Z,4.65
2023-02-13T03:12:41.943Z,4.65
2023-02-13T03:16:30.939Z,4.67
2023-02-13T03:20:25.222Z,4.67
2023-02-13T03:24:02.356Z,4.67
2023-02-13T03:27:58.532Z,4.68
2023-02-13T03:31:33.377Z,4.70
2023-02-13T03:35:39.070Z,4.71
2023-02-13T03:39:13.892Z,4.71
2023-02-13T03:42:47.106Z,4.73
2023-02-13T03:46:15.676Z,4.77
2023-02-13T03:50:08.086Z,4.80
2023-02-13T03:53:39.494Z,4.83
2023-02-13T03:57:24.295Z,4.86
2023-02-13T04:00:55.350Z,4.87
2023-02-13T04:04:28.996Z,4.89
2023-02-13T04:07:56.420Z,4.91
2023-02-13T04:11:32.150Z,4.92
2023-02-13T04:15:05.559Z,4.92
2023-02-13T04:18:34.228Z,4.92
2023-02-13T04:22:03.263Z,4.92
2023-02-13T04:25:30.540Z,4.92
2023-02-13T04:28:57.727Z,4.94
2023-02-13T04:32:24.987Z,4.97
2023-02-13T04:35:52.715Z,4.99
2023-02-13T04:39:20.736Z,5.01
2023-02-13T04:42:50.416Z,5.02
2023-02-13T04:46:16.058Z,5.02
2023-02-13T04:49:43.395Z,5.01
2023-02-13T04:53:10.748Z,5.01
2023-02-13T04:56:37.825Z,5.03
2023-02-13T05:00:05.664Z,5.03
2023-02-13T05:03:32.847Z,5.05
2023-02-13T05:07:00.143Z,5.05
2023-02-13T05:10:27.561Z,5.06
2023-02-13T05:13:55.103Z,5.06
2023-02-13T05:17:22.418Z,5.07
2023-02-13T05:21:09.856Z,5.07
2023-02-13T05:24:36.951Z,5.08
2023-02-13T05:28:04.731Z,5.09
2023-02-13T05:31:32.013Z,5.09
2023-02-13T05:34:59.405Z,5.10
2023-02-13T05:38:26.556Z,5.10
2023-02-13T05:41:53.849Z,5.09
2023-02-13T05:45:21.418Z,5.09
2023-02-13T05:48:48.450Z,5.07
2023-02-13T05:52:15.740Z,5.06
2023-02-13T05:55:43.240Z,5.04
2023-02-13T05:59:10.776Z,5.02
2023-02-13T06:02:38.039Z,5.01
2023-02-13T06:06:05.852Z,4.98
2023-02-13T06:09:33.170Z,4.96
2023-02-13T06:13:00.453Z,4.94
2023-02-13T06:16:28.141Z,4.92
2023-02-13T06:19:55.566Z,4.91
2023-02-13T06:23:22.651Z,4.91
2023-02-13T06:26:49.902Z,4.92
2023-02-13T06:30:19.050Z,4.94
2023-02-13T06:33:49.134Z,4.96
2023-02-13T06:37:27.393Z,5.00
2023-02-13T06:40:54.516Z,5.04
2023-02-13T06:44:21.988Z,5.09
2023-02-13T06:47:50.380Z,5.11
2023-02-13T06:51:17.820Z,5.13
2023-02-13T06:54:48.053Z,5.16
2023-02-13T06:58:15.527Z,5.18
2023-02-13T07:01:42.908Z,5.18
2023-02-13T07:05:11.642Z,5.17
2023-02-13T07:08:38.764Z,5.16
2023-02-13T07:12:08.397Z,5.14
2023-02-13T07:15:34.070Z,5.13
2023-02-13T07:19:01.373Z,5.10
2023-02-13T07:22:28.787Z,5.11
2023-02-13T07:25:56.154Z,5.11
2023-02-13T07:29:23.387Z,5.11
2023-02-13T07:32:53.287Z,5.11
2023-02-13T07:36:20.566Z,5.12
2023-02-13T07:39:47.782Z,5.14
2023-02-13T07:43:17.592Z,5.16
2023-02-13T07:46:44.925Z,5.19
2023-02-13T07:50:13.800Z,5.22
2023-02-13T07:53:41.015Z,5.25
2023-02-13T07:57:08.477Z,5.27
2023-02-13T08:00:35.686Z,5.30
2023-02-13T08:04:02.878Z,5.32
2023-02-13T08:07:30.213Z,5.32
2023-02-13T08:11:16.184Z,5.34
2023-02-13T08:14:43.651Z,5.37
2023-02-13T08:18:11.048Z,5.39
2023-02-13T08:21:38.351Z,5.41
2023-02-13T08:25:06.047Z,5.44
2023-02-13T08:28:33.321Z,5.45
2023-02-13T08:32:00.697Z,5.45
2023-02-13T08:35:29.847Z,5.46
2023-02-13T08:38:57.082Z,5.48
2023-02-13T08:42:24.267Z,5.51
2023-02-13T08:45:51.470Z,5.54
2023-02-13T08:49:19.045Z,5.56
2023-02-13T08:52:46.370Z,5.58
2023-02-13T08:56:13.593Z,5.60
2023-02-13T08:59:40.743Z,5.61
2023-02-13T09:03:10.095Z,5.62
2023-02-13T09:06:37.988Z,5.63
2023-02-13T09:10:05.538Z,5.65
2023-02-13T09:13:34.564Z,5.66
2023-02-13T09:17:01.636Z,5.69
2023-02-13T09:20:29.006Z,5.73
2023-02-13T09:23:56.364Z,5.76
2023-02-13T09:27:23.409Z,5.79
2023-02-13T09:30:50.919Z,5.81
2023-02-13T09:34:18.353Z,5.82
2023-02-13T09:37:45.920Z,5.84
2023-02-13T09:41:17.419Z,5.86
2023-02-13T09:44:46.295Z,5.87
2023-02-13T09:48:20.541Z,5.89
2023-02-13T09:51:49.830Z,5.91
2023-02-13T09:55:22.974Z,5.96
2023-02-13T09:58:58.701Z,6.01
2023-02-13T10:02:42.558Z,6.05
2023-02-13T10:06:16.195Z,6.09
2023-02-13T10:09:54.225Z,6.11
2023-02-13T10:13:34.004Z,6.16
2023-02-13T10:17:05.474Z,6.19
2023-02-13T10:20:37.140Z,6.24
2023-02-13T10:24:08.730Z,6.30
2023-02-13T10:27:41.448Z,6.33
2023-02-13T10:31:12.358Z,6.34
2023-02-13T10:34:44.966Z,6.37
2023-02-13T10:38:20.450Z,6.40
2023-02-13T10:41:57.812Z,6.40
2023-02-13T10:45:47.416Z,6.43
2023-02-13T10:49:38.093Z,6.46
2023-02-13T10:53:18.102Z,6.47
2023-02-13T10:56:52.959Z,6.45
2023-02-13T11:00:27.312Z,6.45
2023-02-13T11:04:07.572Z,6.45
2023-02-13T11:07:37.106Z,6.44
2023-02-13T11:11:05.969Z,6.44
2023-02-13T11:14:33.806Z,6.44
2023-02-13T11:18:13.436Z,6.44
2023-02-13T11:21:41.133Z,6.43
2023-02-13T11:25:20.064Z,6.40
2023-02-13T11:28:55.564Z,6.38
2023-02-13T11:32:25.235Z,6.37
2023-02-13T11:36:05.022Z,6.37
2023-02-13T11:39:30.579Z,6.37
2023-02-13T11:42:57.789Z,6.41
2023-02-13T11:46:27.004Z,6.43
2023-02-13T11:49:54.328Z,6.45
2023-02-13T11:53:25.585Z,6.48
2023-02-13T11:57:04.696Z,6.50
2023-02-13T12:00:40.051Z,6.52
2023-02-13T12:04:16.208Z,6.51
2023-02-13T12:07:44.561Z,6.54
2023-02-13T12:11:23.385Z,6.55
2023-02-13T12:14:51.799Z,6.56
2023-02-13T12:18:28.097Z,6.56
2023-02-13T12:22:15.077Z,6.55
2023-02-13T12:25:55.273Z,6.55
2023-02-13T12:29:39.071Z,6.53
2023-02-13T12:33:18.971Z,6.51
2023-02-13T12:36:48.213Z,6.50
2023-02-13T12:40:44.367Z,6.48
2023-02-13T12:44:42.820Z,6.47
2023-02-13T12:48:29.580Z,6.46
2023-02-13T12:52:15.147Z,6.44
2023-02-13T12:56:03.066Z,6.41
2023-02-13T12:59:43.260Z,6.40
2023-02-13T13:03:41.303Z,6.38
2023-02-13T13:07:30.240Z,6.42
2023-02-13T13:11:13.975Z,6.41
2023-02-13T13:14:46.470Z,6.41
2023-02-13T13:18:29.767Z,6.41
2023-02-13T13:22:01.714Z,6.44
2023-02-13T13:25:49.736Z,6.46
2023-02-13T13:29:22.025Z,6.44
2023-02-13T13:32:53.251Z,6.43
2023-02-13T13:36:36.830Z,6.42
2023-02-13T13:40:17.976Z,6.43
2023-02-13T13:43:58.770Z,6.44
2023-02-13T13:47:41.892Z,6.45
2023-02-13T13:51:20.149Z,6.48
2023-02-13T13:55:00.690Z,6.52
2023-02-13T13:58:36.754Z,6.56
2023-02-13T14:02:41.586Z,6.58
2023-02-13T14:06:11.716Z,6.58
2023-02-13T14:09:43.986Z,6.57
2023-02-13T14:13:11.603Z,6.57
2023-02-13T14:17:01.939Z,6.56
2023-02-13T14:20:38.919Z,6.53
2023-02-13T14:24:36.078Z,6.51
2023-02-13T14:28:05.741Z,6.48
2023-02-13T14:31:35.842Z,6.46
2023-02-13T14:35:07.488Z,6.44
2023-02-13T14:38:35.680Z,6.42
2023-02-13T14:42:04.536Z,6.42
2023-02-13T14:45:35.240Z,6.39
2023-02-13T14:49:08.232Z,6.36
2023-02-13T14:52:43.062Z,6.33
2023-02-13T14:56:14.563Z,6.30
2023-02-13T14:59:47.847Z,6.23
2023-02-13T15:03:25.939Z,6.18
2023-02-13T15:06:55.489Z,6.14
2023-02-13T15:10:37.484Z,6.12
2023-02-13T15:14:23.238Z,6.07
2023-02-13T15:17:50.747Z,6.03
2023-02-13T15:21:22.315Z,6.00
2023-02-13T15:24:51.753Z,5.97
2023-02-13T15:28:23.082Z,5.94
2023-02-13T15:31:52.825Z,5.90
2023-02-13T15:35:28.101Z,5.87
2023-02-13T15:39:09.530Z,5.84
2023-02-13T15:42:39.035Z,5.82
2023-02-13T15:46:19.019Z,5.83
2023-02-13T15:49:50.406Z,5.83
2023-02-13T15:53:19.913Z,5.82
2023-02-13T15:56:49.786Z,5.81
2023-02-13T16:00:25.630Z,5.79
2023-02-13T16:04:00.041Z,5.79
2023-02-13T16:07:27.215Z,5.77
2023-02-13T16:11:25.122Z,5.75
2023-02-13T16:14:56.397Z,5.73
2023-02-13T16:18:23.820Z,5.69
2023-02-13T16:21:52.968Z,5.67
2023-02-13T16:25:26.155Z,5.65
2023-02-13T16:28:55.229Z,5.63
2023-02-13T16:32:29.422Z,5.62
2023-02-13T16:35:58.079Z,5.61
2023-02-13T16:39:45.677Z,5.59
2023-02-13T16:43:51.742Z,5.59
2023-02-13T16:47:25.325Z,5.58
2023-02-13T16:50:59.532Z,5.57
2023-02-13T16:54:34.680Z,5.55
2023-02-13T16:58:07.300Z,5.54
2023-02-13T17:01:38.347Z,5.54
2023-02-13T17:05:25.062Z,5.54
2023-02-13T17:08:53.869Z,5.53
2023-02-13T17:12:21.897Z,5.53
2023-02-13T17:15:50.465Z,5.53
2023-02-13T17:19:17.811Z,5.54
2023-02-13T17:22:47.277Z,5.53
2023-02-13T17:26:16.929Z,5.52
2023-02-13T17:29:44.224Z,5.52
2023-02-13T17:33:16.524Z,5.51
2023-02-13T17:36:43.631Z,5.49
2023-02-13T17:40:16.619Z,5.49
2023-02-13T17:43:43.900Z,5.48
2023-02-13T17:47:11.372Z,5.47
2023-02-13T17:50:39.875Z,5.46
2023-02-13T17:54:07.579Z,5.46
2023-02-13T17:57:37.957Z,5.45
2023-02-13T18:01:06.017Z,5.44
2023-02-13T18:04:42.710Z,5.43
2023-02-13T18:08:13.217Z,5.42
2023-02-13T18:11:40.525Z,5.42
2023-02-13T18:15:09.326Z,5.41
2023-02-13T18:18:36.643Z,5.40
2023-02-13T18:22:04.050Z,5.39
2023-02-13T18:25:31.419Z,5.39
2023-02-13T18:28:58.784Z,5.39
2023-02-13T18:32:26.361Z,5.39
2023-02-13T18:35:59.111Z,5.36
2023-02-13T18:39:26.401Z,5.36
2023-02-13T18:42:53.468Z,5.36
2023-02-13T18:46:20.831Z,5.35
2023-02-13T18:49:48.204Z,5.33
2023-02-13T18:53:15.660Z,5.32
2023-02-13T18:56:43.128Z,5.30
2023-02-13T19:00:17.326Z,5.29
2023-02-13T19:03:44.610Z,5.28
2023-02-13T19:07:11.953Z,5.28
2023-02-13T19:10:39.066Z,5.27
2023-02-13T19:14:07.370Z,5.27
2023-02-13T19:17:39.193Z,5.26
2023-02-13T19:21:07.865Z,5.25
2023-02-13T19:24:35.528Z,5.25
2023-02-13T19:28:02.746Z,5.24
2023-02-13T19:31:32.377Z,5.24
2023-02-13T19:34:59.762Z,5.23
2023-02-13T19:38:26.945Z,5.23
2023-02-13T19:41:54.297Z,5.22
2023-02-13T19:45:21.986Z,5.22
2023-02-13T19:48:49.646Z,5.21
2023-02-13T19:52:17.140Z,5.20
2023-02-13T19:55:44.556Z,5.19
2023-02-13T19:59:13.629Z,5.17
2023-02-13T20:02:41.591Z,5.16
2023-02-13T20:06:14.119Z,5.14
2023-02-13T20:09:42.094Z,5.13
2023-02-13T20:13:09.261Z,5.12
2023-02-13T20:16:37.106Z,5.12
2023-02-13T20:20:05.293Z,5.11
2023-02-13T20:23:32.658Z,5.09
2023-02-13T20:26:59.931Z,5.08
2023-02-13T20:30:27.692Z,5.07
2023-02-13T20:33:59.471Z,5.06
2023-02-13T20:37:26.762Z,5.04
2023-02-13T20:40:57.829Z,5.02
2023-02-13T20:44:29.732Z,4.99
2023-02-13T20:47:56.994Z,4.98
2023-02-13T20:51:24.294Z,4.97
2023-02-13T20:54:51.501Z,4.94
2023-02-13T20:58:19.358Z,4.93
2023-02-13T21:01:50.075Z,4.91
2023-02-13T21:05:18.214Z,4.91
2023-02-13T21:08:46.566Z,4.90
2023-02-13T21:12:14.514Z,4.88
2023-02-13T21:15:41.985Z,4.85
2023-02-13T21:19:13.017Z,4.81
2023-02-13T21:22:40.441Z,4.77
2023-02-13T21:26:13.409Z,4.73
2023-02-13T21:29:41.256Z,4.70
2023-02-13T21:33:08.374Z,4.67
2023-02-13T21:36:37.311Z,4.63
2023-02-13T21:40:08.524Z,4.61
2023-02-13T21:43:37.975Z,4.59
2023-02-13T21:47:11.289Z,4.58
2023-02-13T21:50:48.419Z,4.57
2023-02-13T21:54:16.340Z,4.56
2023-02-13T21:57:44.115Z,4.55
2023-02-13T22:01:25.460Z,4.53
2023-02-13T22:04:53.805Z,4.51
2023-02-13T22:08:21.017Z,4.50
2023-02-13T22:11:50.442Z,4.50
2023-02-13T22:15:19.239Z,4.50
2023-02-13T22:18:49.105Z,4.51
2023-02-13T22:22:16.387Z,4.52
2023-02-13T22:25:48.056Z,4.54
2023-02-13T22:29:17.921Z,4.56
2023-02-13T22:32:47.751Z,4.55
2023-02-13T22:36:16.828Z,4.55
2023-02-13T22:39:44.074Z,4.54
2023-02-13T22:43:13.632Z,4.55
2023-02-13T22:46:40.912Z,4.55
2023-02-13T22:50:10.325Z,4.54
2023-02-13T22:53:38.554Z,4.53
2023-02-13T22:57:06.200Z,4.50
2023-02-13T23:00:33.474Z,4.50
2023-02-13T23:04:00.911Z,4.50
2023-02-13T23:07:28.224Z,4.50
2023-02-13T23:11:13.127Z,4.49
2023-02-13T23:14:40.327Z,4.46
2023-02-13T23:18:13.914Z,4.45
2023-02-13T23:21:41.088Z,4.44
2023-02-13T23:25:09.051Z,4.42
2023-02-13T23:28:43.785Z,4.41
2023-02-13T23:32:11.178Z,4.41
2023-02-13T23:35:38.427Z,4.40
2023-02-13T23:39:05.696Z,4.39
2023-02-13T23:42:32.881Z,4.37
2023-02-13T23:46:00.166Z,4.37
2023-02-13T23:49:27.435Z,4.36
2023-02-13T23:52:54.770Z,4.35
2023-02-13T23:56:22.067Z,4.33
2023-02-13T23:59:49.482Z,4.33
